Yuma, AZ (85364)

3:36 PM MST on February 19, 2017 (GMT -0700)
Yuma Downtown | | Change Station

Elev 171 ft 32.71 °N, 114.62 °W | Updated 2 seconds ago

Clear
Clear
68.4 °F
Feels Like 68.4 °F
N
6.7
Wind Variable Wind from SSE
Gusts 7.4 mph

Today
High -- | Low -- °F
--% Chance of Precip.
Yesterday
High -- | Low -- °F
Precip. -- in
Pressure 29.91 in
Visibility 10.0 miles
Clouds Few 4200 ft
Dew Point 54 °F
Humidity 60%
Rainfall 0.00 in
Snow Depth Not available.
7:17 AM 6:27 PM
Last Quarter, 40% visible
METAR KNYL 192157Z AUTO 21007KT 10SM FEW042 19/09 A2991 RMK AO2 SLP128 T01940094
Pressure 29.91 in
Visibility 10.0 miles
Clouds Few 4200 ft
Dew Point 54 °F
Humidity 60%
Rainfall 0.00 in
Snow Depth Not available.
7:17 AM 6:27 PM
Last Quarter, 40% visible
METAR KNYL 192157Z AUTO 21007KT 10SM FEW042 19/09 A2991 RMK AO2 SLP128 T01940094

Get Your Daily Forecast Email!

Thanks for signing up!

Be on the lookout for a verification email in your inbox.

You'll start receiving the daily forecast at 8 AM.

×

10-Day Weather Forecast

Almanac

Astronomy

Feb. 19, 2017 Rise Set
Actual Time
Civil Twilight
Nautical Twilight
Astronomical Twilight
Moon
Length of Visible Light
Length of Day
Tomorrow will be .
, % of the Moon is Illuminated

Today's Extremes

State Highs State Lows

Community

WunderPhotos

Upload Photos

1,962,540 photos uploaded!

WunderBlog® & News

Nearby

Air Quality

  Air Quality AQ Index Pollutant
Not available.

Snow Depth

Station Depth Elevation

Earthquake Activity

City Distance Mag. Time & Date
Minimum magnitude displayed is 2.5.

Coastal Water Temperatures

Place Temperature

Stations

Nearby Weather Stations

Station Location Temp. Windchill Dew Point Humidity Wind Precip. Elev Updated Type
                   

Watches & Warnings

There are currently no watches in effect.